Detroit, Michigan
Traffic Map
Current Weather Conditions
Detroit, Michigan
Few Clouds
Few Clouds

Feels Like: 9°
Wind Chill: Ceiling: Unl
Heat Index: Visibility: 15mi
Dew Point: Wind: 0mph
Humidity: 93% Direction: ° ()
Pressure: 30.07in Gusts: 0mph
Raw Report DataCYQG 170300Z 00000KT 15SM FEW050 09/08 A3007 RMK SC1 SLP184
Traffic Incident Summary
Active as of:
Severity:
Category:
InformationThere was an issue retrieving the traffic information for this location. Please try a different location or try again shortly.
Advertisements
Track Severe Weather on mobile